sensor_id;sensor_type;location;lat;lon;timestamp;P1;durP1;ratioP1;P2;durP2;ratioP2
4808;SDS011;2418;49.930;8.606;2023-02-01T00:01:54;9.63;;;6.82;;
4808;SDS011;2418;49.930;8.606;2023-02-01T00:04:23;6.63;;;6.23;;
4808;SDS011;2418;49.930;8.606;2023-02-01T00:06:48;6.80;;;6.40;;
4808;SDS011;2418;49.930;8.606;2023-02-01T00:09:14;7.38;;;6.78;;
4808;SDS011;2418;49.930;8.606;2023-02-01T00:11:40;7.22;;;6.65;;
4808;SDS011;2418;49.930;8.606;2023-02-01T00:14:05;6.88;;;6.00;;
4808;SDS011;2418;49.930;8.606;2023-02-01T00:16:32;6.85;;;6.28;;
4808;SDS011;2418;49.930;8.606;2023-02-01T00:19:05;10.20;;;5.80;;
4808;SDS011;2418;49.930;8.606;2023-02-01T00:21:34;7.25;;;5.70;;
4808;SDS011;2418;49.930;8.606;2023-02-01T00:23:59;5.85;;;5.55;;
4808;SDS011;2418;49.930;8.606;2023-02-01T00:26:27;7.03;;;5.68;;
4808;SDS011;2418;49.930;8.606;2023-02-01T00:29:07;6.10;;;5.70;;
4808;SDS011;2418;49.930;8.606;2023-02-01T00:31:36;6.10;;;5.70;;
4808;SDS011;2418;49.930;8.606;2023-02-01T00:34:02;6.57;;;6.07;;
4808;SDS011;2418;49.930;8.606;2023-02-01T00:36:28;7.03;;;6.30;;
4808;SDS011;2418;49.930;8.606;2023-02-01T00:38:54;7.00;;;6.17;;
4808;SDS011;2418;49.930;8.606;2023-02-01T00:41:20;9.37;;;6.77;;
4808;SDS011;2418;49.930;8.606;2023-02-01T00:43:46;8.77;;;7.28;;
4808;SDS011;2418;49.930;8.606;2023-02-01T00:46:13;7.85;;;7.22;;
4808;SDS011;2418;49.930;8.606;2023-02-01T00:48:40;9.07;;;6.87;;
4808;SDS011;2418;49.930;8.606;2023-02-01T00:51:11;8.70;;;7.88;;
4808;SDS011;2418;49.930;8.606;2023-02-01T00:53:38;7.97;;;7.28;;
4808;SDS011;2418;49.930;8.606;2023-02-01T00:56:04;8.50;;;7.90;;
4808;SDS011;2418;49.930;8.606;2023-02-01T00:58:31;7.93;;;7.32;;
4808;SDS011;2418;49.930;8.606;2023-02-01T01:01:10;10.30;;;8.00;;
4808;SDS011;2418;49.930;8.606;2023-02-01T01:03:41;8.70;;;7.90;;
4808;SDS011;2418;49.930;8.606;2023-02-01T01:06:09;10.05;;;7.90;;
4808;SDS011;2418;49.930;8.606;2023-02-01T01:08:36;11.30;;;8.57;;
4808;SDS011;2418;49.930;8.606;2023-02-01T01:11:10;11.50;;;8.60;;
4808;SDS011;2418;49.930;8.606;2023-02-01T01:13:38;8.75;;;8.05;;
4808;SDS011;2418;49.930;8.606;2023-02-01T01:16:04;9.07;;;8.20;;
4808;SDS011;2418;49.930;8.606;2023-02-01T01:18:31;9.55;;;8.50;;
4808;SDS011;2418;49.930;8.606;2023-02-01T01:20:58;9.30;;;8.13;;
4808;SDS011;2418;49.930;8.606;2023-02-01T01:23:25;9.63;;;8.47;;
4808;SDS011;2418;49.930;8.606;2023-02-01T01:25:51;9.30;;;8.35;;
4808;SDS011;2418;49.930;8.606;2023-02-01T01:28:17;11.50;;;8.63;;
4808;SDS011;2418;49.930;8.606;2023-02-01T01:30:42;10.33;;;8.10;;
4808;SDS011;2418;49.930;8.606;2023-02-01T01:33:08;9.23;;;8.38;;
4808;SDS011;2418;49.930;8.606;2023-02-01T01:35:34;10.10;;;9.10;;
4808;SDS011;2418;49.930;8.606;2023-02-01T01:38:00;9.10;;;8.27;;
4808;SDS011;2418;49.930;8.606;2023-02-01T01:40:26;10.30;;;8.47;;
4808;SDS011;2418;49.930;8.606;2023-02-01T01:42:52;8.73;;;7.95;;
4808;SDS011;2418;49.930;8.606;2023-02-01T01:45:24;9.65;;;8.30;;
4808;SDS011;2418;49.930;8.606;2023-02-01T01:47:52;9.48;;;8.57;;
4808;SDS011;2418;49.930;8.606;2023-02-01T01:50:24;8.73;;;7.90;;
4808;SDS011;2418;49.930;8.606;2023-02-01T01:53:04;10.10;;;9.10;;
4808;SDS011;2418;49.930;8.606;2023-02-01T01:55:34;10.23;;;9.43;;
4808;SDS011;2418;49.930;8.606;2023-02-01T01:58:06;10.43;;;8.70;;
4808;SDS011;2418;49.930;8.606;2023-02-01T02:00:35;9.38;;;8.48;;
4808;SDS011;2418;49.930;8.606;2023-02-01T02:03:03;9.80;;;8.80;;
4808;SDS011;2418;49.930;8.606;2023-02-01T02:05:35;10.52;;;9.52;;
4808;SDS011;2418;49.930;8.606;2023-02-01T02:08:01;18.50;;;9.30;;
4808;SDS011;2418;49.930;8.606;2023-02-01T02:10:27;10.93;;;8.35;;
4808;SDS011;2418;49.930;8.606;2023-02-01T02:13:11;12.75;;;9.77;;
4808;SDS011;2418;49.930;8.606;2023-02-01T02:15:38;14.80;;;9.63;;
4808;SDS011;2418;49.930;8.606;2023-02-01T02:18:12;12.05;;;9.60;;
4808;SDS011;2418;49.930;8.606;2023-02-01T02:21:02;14.40;;;10.40;;
4808;SDS011;2418;49.930;8.606;2023-02-01T02:32:13;15.07;;;11.43;;
4808;SDS011;2418;49.930;8.606;2023-02-01T02:34:57;14.77;;;11.25;;
4808;SDS011;2418;49.930;8.606;2023-02-01T02:37:43;16.02;;;11.73;;
4808;SDS011;2418;49.930;8.606;2023-02-01T02:40:20;14.53;;;12.10;;
4808;SDS011;2418;49.930;8.606;2023-02-01T02:46:22;17.20;;;11.38;;
4808;SDS011;2418;49.930;8.606;2023-02-01T02:49:20;13.70;;;11.40;;
4808;SDS011;2418;49.930;8.606;2023-02-01T02:52:05;16.00;;;11.53;;
4808;SDS011;2418;49.930;8.606;2023-02-01T02:54:56;13.80;;;11.50;;
4808;SDS011;2418;49.930;8.606;2023-02-01T02:57:33;17.70;;;11.30;;
4808;SDS011;2418;49.930;8.606;2023-02-01T03:00:27;18.13;;;10.90;;
4808;SDS011;2418;49.930;8.606;2023-02-01T03:03:14;11.38;;;8.40;;
4808;SDS011;2418;49.930;8.606;2023-02-01T03:05:58;17.00;;;10.20;;
4808;SDS011;2418;49.930;8.606;2023-02-01T03:08:25;14.05;;;10.60;;
4808;SDS011;2418;49.930;8.606;2023-02-01T03:10:57;17.67;;;11.50;;
4808;SDS011;2418;49.930;8.606;2023-02-01T03:13:28;14.95;;;11.75;;
4808;SDS011;2418;49.930;8.606;2023-02-01T03:18:24;16.38;;;11.50;;
4808;SDS011;2418;49.930;8.606;2023-02-01T03:21:29;19.17;;;11.40;;
4808;SDS011;2418;49.930;8.606;2023-02-01T03:24:01;17.15;;;11.57;;
4808;SDS011;2418;49.930;8.606;2023-02-01T03:26:29;16.73;;;11.70;;
4808;SDS011;2418;49.930;8.606;2023-02-01T03:29:00;19.75;;;12.70;;
4808;SDS011;2418;49.930;8.606;2023-02-01T03:31:32;23.50;;;11.38;;
4808;SDS011;2418;49.930;8.606;2023-02-01T03:33:58;17.45;;;11.15;;
4808;SDS011;2418;49.930;8.606;2023-02-01T03:36:31;16.33;;;12.18;;
4808;SDS011;2418;49.930;8.606;2023-02-01T03:42:02;21.67;;;12.45;;
4808;SDS011;2418;49.930;8.606;2023-02-01T03:47:21;16.42;;;11.02;;
4808;SDS011;2418;49.930;8.606;2023-02-01T03:49:51;17.30;;;11.38;;
4808;SDS011;2418;49.930;8.606;2023-02-01T03:52:22;24.52;;;11.70;;
4808;SDS011;2418;49.930;8.606;2023-02-01T03:54:59;17.10;;;11.30;;
4808;SDS011;2418;49.930;8.606;2023-02-01T03:57:27;17.52;;;11.68;;
4808;SDS011;2418;49.930;8.606;2023-02-01T04:00:04;15.40;;;11.25;;
4808;SDS011;2418;49.930;8.606;2023-02-01T04:02:47;21.92;;;11.63;;
4808;SDS011;2418;49.930;8.606;2023-02-01T04:05:13;19.33;;;11.52;;
4808;SDS011;2418;49.930;8.606;2023-02-01T04:07:38;15.25;;;10.60;;
4808;SDS011;2418;49.930;8.606;2023-02-01T04:10:04;15.13;;;10.40;;
4808;SDS011;2418;49.930;8.606;2023-02-01T04:12:30;17.80;;;10.82;;
4808;SDS011;2418;49.930;8.606;2023-02-01T04:14:55;20.10;;;11.32;;
4808;SDS011;2418;49.930;8.606;2023-02-01T04:17:21;15.67;;;10.50;;
4808;SDS011;2418;49.930;8.606;2023-02-01T04:19:47;22.90;;;11.07;;
4808;SDS011;2418;49.930;8.606;2023-02-01T04:22:12;15.03;;;11.80;;
4808;SDS011;2418;49.930;8.606;2023-02-01T04:24:38;15.83;;;10.90;;
4808;SDS011;2418;49.930;8.606;2023-02-01T04:27:03;15.97;;;9.93;;
4808;SDS011;2418;49.930;8.606;2023-02-01T04:29:29;21.08;;;10.88;;
4808;SDS011;2418;49.930;8.606;2023-02-01T04:31:55;17.43;;;9.57;;
4808;SDS011;2418;49.930;8.606;2023-02-01T04:34:20;13.57;;;9.90;;
4808;SDS011;2418;49.930;8.606;2023-02-01T04:36:48;15.60;;;9.40;;
4808;SDS011;2418;49.930;8.606;2023-02-01T04:39:13;13.13;;;9.30;;
4808;SDS011;2418;49.930;8.606;2023-02-01T04:41:39;14.07;;;9.20;;
4808;SDS011;2418;49.930;8.606;2023-02-01T04:44:05;15.02;;;9.15;;
4808;SDS011;2418;49.930;8.606;2023-02-01T04:46:30;9.88;;;8.25;;
4808;SDS011;2418;49.930;8.606;2023-02-01T04:48:56;13.80;;;8.70;;
4808;SDS011;2418;49.930;8.606;2023-02-01T04:51:21;13.10;;;8.77;;
4808;SDS011;2418;49.930;8.606;2023-02-01T04:53:47;9.70;;;8.27;;
4808;SDS011;2418;49.930;8.606;2023-02-01T04:56:13;10.77;;;7.97;;
4808;SDS011;2418;49.930;8.606;2023-02-01T04:58:38;11.15;;;7.85;;
4808;SDS011;2418;49.930;8.606;2023-02-01T05:01:04;10.82;;;8.40;;
4808;SDS011;2418;49.930;8.606;2023-02-01T05:03:32;12.85;;;8.02;;
4808;SDS011;2418;49.930;8.606;2023-02-01T05:05:58;13.05;;;8.05;;
4808;SDS011;2418;49.930;8.606;2023-02-01T05:08:24;8.15;;;7.45;;
4808;SDS011;2418;49.930;8.606;2023-02-01T05:10:58;11.07;;;6.95;;
4808;SDS011;2418;49.930;8.606;2023-02-01T05:13:27;7.97;;;7.18;;
4808;SDS011;2418;49.930;8.606;2023-02-01T05:16:11;8.18;;;6.20;;
4808;SDS011;2418;49.930;8.606;2023-02-01T05:18:40;6.53;;;5.93;;
4808;SDS011;2418;49.930;8.606;2023-02-01T05:21:09;10.27;;;6.30;;
4808;SDS011;2418;49.930;8.606;2023-02-01T05:23:34;5.93;;;5.43;;
4808;SDS011;2418;49.930;8.606;2023-02-01T05:26:23;6.38;;;5.45;;
4808;SDS011;2418;49.930;8.606;2023-02-01T05:28:59;5.10;;;4.70;;
4808;SDS011;2418;49.930;8.606;2023-02-01T05:31:24;8.00;;;4.50;;
4808;SDS011;2418;49.930;8.606;2023-02-01T05:33:50;4.60;;;4.20;;
4808;SDS011;2418;49.930;8.606;2023-02-01T05:36:19;7.15;;;3.95;;
4808;SDS011;2418;49.930;8.606;2023-02-01T05:38:47;4.32;;;3.92;;
4808;SDS011;2418;49.930;8.606;2023-02-01T05:41:13;4.90;;;4.40;;
4808;SDS011;2418;49.930;8.606;2023-02-01T05:43:38;6.47;;;3.63;;
4808;SDS011;2418;49.930;8.606;2023-02-01T05:46:04;7.80;;;3.87;;
4808;SDS011;2418;49.930;8.606;2023-02-01T05:48:30;5.30;;;3.75;;
4808;SDS011;2418;49.930;8.606;2023-02-01T05:50:55;5.85;;;4.03;;
4808;SDS011;2418;49.930;8.606;2023-02-01T05:53:21;9.85;;;3.72;;
4808;SDS011;2418;49.930;8.606;2023-02-01T05:55:49;13.90;;;4.70;;
4808;SDS011;2418;49.930;8.606;2023-02-01T05:58:19;6.15;;;3.75;;
4808;SDS011;2418;49.930;8.606;2023-02-01T06:00:51;9.80;;;3.50;;
4808;SDS011;2418;49.930;8.606;2023-02-01T06:03:20;9.13;;;3.28;;
4808;SDS011;2418;49.930;8.606;2023-02-01T06:05:46;6.20;;;2.80;;
4808;SDS011;2418;49.930;8.606;2023-02-01T06:08:12;6.20;;;2.55;;
4808;SDS011;2418;49.930;8.606;2023-02-01T06:10:39;3.90;;;2.40;;
4808;SDS011;2418;49.930;8.606;2023-02-01T06:13:05;3.70;;;2.00;;
4808;SDS011;2418;49.930;8.606;2023-02-01T06:15:30;3.47;;;2.60;;
4808;SDS011;2418;49.930;8.606;2023-02-01T06:17:57;3.67;;;2.30;;
4808;SDS011;2418;49.930;8.606;2023-02-01T06:20:22;3.57;;;2.00;;
4808;SDS011;2418;49.930;8.606;2023-02-01T06:22:48;3.30;;;1.80;;
4808;SDS011;2418;49.930;8.606;2023-02-01T06:25:14;2.50;;;2.05;;
4808;SDS011;2418;49.930;8.606;2023-02-01T06:27:41;4.18;;;2.60;;
4808;SDS011;2418;49.930;8.606;2023-02-01T06:30:09;2.20;;;1.63;;
4808;SDS011;2418;49.930;8.606;2023-02-01T06:32:35;1.70;;;1.60;;
4808;SDS011;2418;49.930;8.606;2023-02-01T06:35:01;3.20;;;2.20;;
4808;SDS011;2418;49.930;8.606;2023-02-01T06:37:26;2.87;;;1.80;;
4808;SDS011;2418;49.930;8.606;2023-02-01T06:39:54;3.13;;;2.30;;
4808;SDS011;2418;49.930;8.606;2023-02-01T06:42:23;2.13;;;2.13;;
4808;SDS011;2418;49.930;8.606;2023-02-01T06:44:48;2.60;;;2.40;;
4808;SDS011;2418;49.930;8.606;2023-02-01T06:47:14;3.00;;;2.10;;
4808;SDS011;2418;49.930;8.606;2023-02-01T06:49:39;4.87;;;2.20;;
4808;SDS011;2418;49.930;8.606;2023-02-01T06:52:05;4.25;;;2.90;;
4808;SDS011;2418;49.930;8.606;2023-02-01T06:54:31;10.97;;;2.70;;
4808;SDS011;2418;49.930;8.606;2023-02-01T06:56:58;5.03;;;3.20;;
4808;SDS011;2418;49.930;8.606;2023-02-01T06:59:24;7.50;;;3.20;;
4808;SDS011;2418;49.930;8.606;2023-02-01T07:01:49;4.00;;;3.70;;
4808;SDS011;2418;49.930;8.606;2023-02-01T07:04:15;13.40;;;3.63;;
4808;SDS011;2418;49.930;8.606;2023-02-01T07:06:41;8.03;;;4.00;;
4808;SDS011;2418;49.930;8.606;2023-02-01T07:09:07;8.83;;;3.60;;
4808;SDS011;2418;49.930;8.606;2023-02-01T07:11:33;5.28;;;3.40;;
4808;SDS011;2418;49.930;8.606;2023-02-01T07:13:58;7.63;;;2.97;;
4808;SDS011;2418;49.930;8.606;2023-02-01T07:16:24;7.00;;;2.90;;
4808;SDS011;2418;49.930;8.606;2023-02-01T07:18:51;7.53;;;3.20;;
4808;SDS011;2418;49.930;8.606;2023-02-01T07:21:17;6.93;;;2.85;;
4808;SDS011;2418;49.930;8.606;2023-02-01T07:23:43;7.07;;;2.90;;
4808;SDS011;2418;49.930;8.606;2023-02-01T07:26:09;8.83;;;3.70;;
4808;SDS011;2418;49.930;8.606;2023-02-01T07:28:41;11.23;;;3.75;;
4808;SDS011;2418;49.930;8.606;2023-02-01T07:31:16;6.80;;;3.40;;
4808;SDS011;2418;49.930;8.606;2023-02-01T07:33:45;5.43;;;3.13;;
4808;SDS011;2418;49.930;8.606;2023-02-01T07:36:12;4.30;;;3.20;;
4808;SDS011;2418;49.930;8.606;2023-02-01T07:38:39;11.05;;;4.10;;
4808;SDS011;2418;49.930;8.606;2023-02-01T07:41:05;5.53;;;3.30;;
4808;SDS011;2418;49.930;8.606;2023-02-01T07:43:31;6.88;;;2.95;;
4808;SDS011;2418;49.930;8.606;2023-02-01T07:45:58;5.28;;;3.22;;
4808;SDS011;2418;49.930;8.606;2023-02-01T07:48:25;6.28;;;3.20;;
4808;SDS011;2418;49.930;8.606;2023-02-01T07:51:01;5.82;;;3.60;;
4808;SDS011;2418;49.930;8.606;2023-02-01T07:53:31;9.48;;;4.32;;
4808;SDS011;2418;49.930;8.606;2023-02-01T07:55:58;7.57;;;3.87;;
4808;SDS011;2418;49.930;8.606;2023-02-01T07:58:24;10.98;;;4.20;;
4808;SDS011;2418;49.930;8.606;2023-02-01T08:00:50;12.95;;;4.28;;
4808;SDS011;2418;49.930;8.606;2023-02-01T08:03:34;10.00;;;4.90;;
4808;SDS011;2418;49.930;8.606;2023-02-01T08:06:00;9.60;;;3.90;;
4808;SDS011;2418;49.930;8.606;2023-02-01T08:08:26;15.98;;;4.70;;
4808;SDS011;2418;49.930;8.606;2023-02-01T08:10:56;11.82;;;4.32;;
4808;SDS011;2418;49.930;8.606;2023-02-01T08:13:25;9.80;;;4.22;;
4808;SDS011;2418;49.930;8.606;2023-02-01T08:15:51;8.73;;;4.20;;
4808;SDS011;2418;49.930;8.606;2023-02-01T08:18:17;6.90;;;4.00;;
4808;SDS011;2418;49.930;8.606;2023-02-01T08:20:43;14.60;;;4.10;;
4808;SDS011;2418;49.930;8.606;2023-02-01T08:23:10;10.55;;;4.55;;
4808;SDS011;2418;49.930;8.606;2023-02-01T08:25:37;11.55;;;4.20;;
4808;SDS011;2418;49.930;8.606;2023-02-01T08:28:06;12.88;;;4.50;;
4808;SDS011;2418;49.930;8.606;2023-02-01T08:30:32;14.07;;;4.35;;
4808;SDS011;2418;49.930;8.606;2023-02-01T08:32:58;8.55;;;3.85;;
4808;SDS011;2418;49.930;8.606;2023-02-01T08:35:23;7.75;;;4.00;;
4808;SDS011;2418;49.930;8.606;2023-02-01T08:37:49;11.32;;;4.30;;
4808;SDS011;2418;49.930;8.606;2023-02-01T08:40:15;8.57;;;4.50;;
4808;SDS011;2418;49.930;8.606;2023-02-01T08:42:42;16.25;;;4.40;;
4808;SDS011;2418;49.930;8.606;2023-02-01T08:45:23;10.02;;;3.90;;
4808;SDS011;2418;49.930;8.606;2023-02-01T08:47:51;10.50;;;4.25;;
4808;SDS011;2418;49.930;8.606;2023-02-01T08:50:18;17.90;;;4.67;;
4808;SDS011;2418;49.930;8.606;2023-02-01T08:52:44;12.87;;;3.63;;
4808;SDS011;2418;49.930;8.606;2023-02-01T08:55:10;11.35;;;4.20;;
4808;SDS011;2418;49.930;8.606;2023-02-01T08:57:36;8.23;;;3.70;;
4808;SDS011;2418;49.930;8.606;2023-02-01T09:00:03;12.90;;;4.47;;
4808;SDS011;2418;49.930;8.606;2023-02-01T09:02:30;10.98;;;3.53;;
4808;SDS011;2418;49.930;8.606;2023-02-01T09:04:56;10.30;;;3.33;;
4808;SDS011;2418;49.930;8.606;2023-02-01T09:07:21;16.40;;;5.00;;
4808;SDS011;2418;49.930;8.606;2023-02-01T09:09:47;11.70;;;4.10;;
4808;SDS011;2418;49.930;8.606;2023-02-01T09:12:13;12.67;;;3.53;;
4808;SDS011;2418;49.930;8.606;2023-02-01T09:14:38;9.53;;;3.60;;
4808;SDS011;2418;49.930;8.606;2023-02-01T09:17:04;10.90;;;3.40;;
4808;SDS011;2418;49.930;8.606;2023-02-01T09:19:32;11.20;;;3.58;;
4808;SDS011;2418;49.930;8.606;2023-02-01T09:21:57;15.45;;;3.90;;
4808;SDS011;2418;49.930;8.606;2023-02-01T09:24:23;10.95;;;3.30;;
4808;SDS011;2418;49.930;8.606;2023-02-01T09:26:49;8.55;;;3.40;;
4808;SDS011;2418;49.930;8.606;2023-02-01T09:29:14;10.60;;;3.17;;
4808;SDS011;2418;49.930;8.606;2023-02-01T09:31:40;11.07;;;3.40;;
4808;SDS011;2418;49.930;8.606;2023-02-01T09:34:06;11.18;;;3.00;;
4808;SDS011;2418;49.930;8.606;2023-02-01T09:36:32;14.15;;;3.20;;
4808;SDS011;2418;49.930;8.606;2023-02-01T09:38:58;10.43;;;2.92;;
4808;SDS011;2418;49.930;8.606;2023-02-01T09:43:59;7.00;;;2.63;;
4808;SDS011;2418;49.930;8.606;2023-02-01T09:46:33;2.35;;;2.10;;
4808;SDS011;2418;49.930;8.606;2023-02-01T09:49:01;13.07;;;3.53;;
4808;SDS011;2418;49.930;8.606;2023-02-01T09:51:35;7.10;;;2.90;;
4808;SDS011;2418;49.930;8.606;2023-02-01T09:54:04;8.15;;;2.65;;
4808;SDS011;2418;49.930;8.606;2023-02-01T09:56:36;8.75;;;3.10;;
4808;SDS011;2418;49.930;8.606;2023-02-01T10:01:58;12.70;;;2.70;;
4808;SDS011;2418;49.930;8.606;2023-02-01T10:04:26;9.90;;;2.72;;
4808;SDS011;2418;49.930;8.606;2023-02-01T10:09:52;13.70;;;3.42;;
4808;SDS011;2418;49.930;8.606;2023-02-01T10:18:08;12.50;;;3.40;;
4808;SDS011;2418;49.930;8.606;2023-02-01T10:26:27;9.60;;;3.10;;
4808;SDS011;2418;49.930;8.606;2023-02-01T10:28:58;12.60;;;3.38;;
4808;SDS011;2418;49.930;8.606;2023-02-01T10:31:28;15.52;;;3.88;;
4808;SDS011;2418;49.930;8.606;2023-02-01T10:33:57;11.90;;;3.00;;
4808;SDS011;2418;49.930;8.606;2023-02-01T10:39:00;12.27;;;3.50;;
4808;SDS011;2418;49.930;8.606;2023-02-01T10:41:35;11.32;;;3.53;;
4808;SDS011;2418;49.930;8.606;2023-02-01T10:44:04;9.98;;;3.40;;
4808;SDS011;2418;49.930;8.606;2023-02-01T10:46:36;15.15;;;3.50;;
4808;SDS011;2418;49.930;8.606;2023-02-01T10:49:02;9.07;;;2.93;;
4808;SDS011;2418;49.930;8.606;2023-02-01T10:51:30;8.70;;;2.92;;
4808;SDS011;2418;49.930;8.606;2023-02-01T10:54:19;12.95;;;3.13;;
4808;SDS011;2418;49.930;8.606;2023-02-01T10:56:47;7.28;;;3.00;;
4808;SDS011;2418;49.930;8.606;2023-02-01T10:59:21;14.07;;;5.15;;
4808;SDS011;2418;49.930;8.606;2023-02-01T11:01:50;9.02;;;3.28;;
4808;SDS011;2418;49.930;8.606;2023-02-01T11:04:23;12.85;;;3.55;;
4808;SDS011;2418;49.930;8.606;2023-02-01T11:06:52;14.68;;;3.97;;
4808;SDS011;2418;49.930;8.606;2023-02-01T11:09:32;17.67;;;2.97;;
4808;SDS011;2418;49.930;8.606;2023-02-01T11:12:03;10.07;;;3.05;;
4808;SDS011;2418;49.930;8.606;2023-02-01T11:14:34;11.00;;;2.70;;
4808;SDS011;2418;49.930;8.606;2023-02-01T11:19:55;8.57;;;2.58;;
4808;SDS011;2418;49.930;8.606;2023-02-01T11:22:24;5.55;;;2.08;;
4808;SDS011;2418;49.930;8.606;2023-02-01T11:24:52;15.82;;;3.85;;
4808;SDS011;2418;49.930;8.606;2023-02-01T11:27:19;16.27;;;3.10;;
4808;SDS011;2418;49.930;8.606;2023-02-01T11:29:48;8.47;;;3.10;;
4808;SDS011;2418;49.930;8.606;2023-02-01T11:32:16;10.90;;;3.28;;
4808;SDS011;2418;49.930;8.606;2023-02-01T11:35:01;9.05;;;3.10;;
4808;SDS011;2418;49.930;8.606;2023-02-01T11:37:31;9.20;;;2.90;;
4808;SDS011;2418;49.930;8.606;2023-02-01T11:40:09;11.05;;;3.30;;
4808;SDS011;2418;49.930;8.606;2023-02-01T11:42:53;14.82;;;3.10;;
4808;SDS011;2418;49.930;8.606;2023-02-01T11:45:31;14.05;;;3.47;;
4808;SDS011;2418;49.930;8.606;2023-02-01T11:47:59;9.30;;;2.75;;
4808;SDS011;2418;49.930;8.606;2023-02-01T12:01:59;14.35;;;3.38;;
4808;SDS011;2418;49.930;8.606;2023-02-01T12:18:59;8.00;;;2.67;;
4808;SDS011;2418;49.930;8.606;2023-02-01T12:34:16;10.05;;;3.25;;
4808;SDS011;2418;49.930;8.606;2023-02-01T12:36:57;10.00;;;2.85;;
4808;SDS011;2418;49.930;8.606;2023-02-01T12:39:32;10.55;;;2.80;;
4808;SDS011;2418;49.930;8.606;2023-02-01T12:50:00;12.48;;;3.53;;
4808;SDS011;2418;49.930;8.606;2023-02-01T12:52:34;12.30;;;2.45;;
4808;SDS011;2418;49.930;8.606;2023-02-01T12:57:42;9.07;;;2.78;;
4808;SDS011;2418;49.930;8.606;2023-02-01T13:00:47;12.23;;;3.27;;
4808;SDS011;2418;49.930;8.606;2023-02-01T13:06:13;10.60;;;2.47;;
4808;SDS011;2418;49.930;8.606;2023-02-01T13:11:34;9.65;;;2.60;;
4808;SDS011;2418;49.930;8.606;2023-02-01T13:14:36;6.83;;;3.10;;
4808;SDS011;2418;49.930;8.606;2023-02-01T13:17:19;7.80;;;2.90;;
4808;SDS011;2418;49.930;8.606;2023-02-01T13:19:57;11.80;;;2.88;;
4808;SDS011;2418;49.930;8.606;2023-02-01T13:22:35;10.13;;;2.80;;
4808;SDS011;2418;49.930;8.606;2023-02-01T13:25:12;8.07;;;2.55;;
4808;SDS011;2418;49.930;8.606;2023-02-01T13:27:41;11.87;;;3.03;;
4808;SDS011;2418;49.930;8.606;2023-02-01T13:32:44;10.88;;;2.40;;
4808;SDS011;2418;49.930;8.606;2023-02-01T13:35:22;7.88;;;2.50;;
4808;SDS011;2418;49.930;8.606;2023-02-01T13:41:13;12.40;;;2.78;;
4808;SDS011;2418;49.930;8.606;2023-02-01T13:44:00;10.70;;;3.10;;
4808;SDS011;2418;49.930;8.606;2023-02-01T13:46:29;8.07;;;3.00;;
4808;SDS011;2418;49.930;8.606;2023-02-01T13:48:56;11.50;;;3.20;;
4808;SDS011;2418;49.930;8.606;2023-02-01T13:51:41;6.47;;;2.87;;
4808;SDS011;2418;49.930;8.606;2023-02-01T13:54:23;13.57;;;3.80;;
4808;SDS011;2418;49.930;8.606;2023-02-01T13:56:51;6.53;;;2.38;;
4808;SDS011;2418;49.930;8.606;2023-02-01T14:05:07;17.13;;;2.88;;
4808;SDS011;2418;49.930;8.606;2023-02-01T14:07:35;15.85;;;2.80;;
4808;SDS011;2418;49.930;8.606;2023-02-01T14:13:11;4.93;;;2.10;;
4808;SDS011;2418;49.930;8.606;2023-02-01T14:16:16;10.20;;;3.65;;
4808;SDS011;2418;49.930;8.606;2023-02-01T14:26:40;7.00;;;2.72;;
4808;SDS011;2418;49.930;8.606;2023-02-01T14:31:53;6.83;;;2.50;;
4808;SDS011;2418;49.930;8.606;2023-02-01T14:34:37;8.90;;;2.70;;
4808;SDS011;2418;49.930;8.606;2023-02-01T14:42:19;14.88;;;2.67;;
4808;SDS011;2418;49.930;8.606;2023-02-01T14:58:46;12.93;;;2.05;;
4808;SDS011;2418;49.930;8.606;2023-02-01T15:01:15;9.88;;;2.40;;
4808;SDS011;2418;49.930;8.606;2023-02-01T15:06:44;7.53;;;2.58;;
4808;SDS011;2418;49.930;8.606;2023-02-01T15:12:05;4.63;;;2.60;;
4808;SDS011;2418;49.930;8.606;2023-02-01T15:14:35;7.47;;;2.47;;
4808;SDS011;2418;49.930;8.606;2023-02-01T15:17:03;5.43;;;2.80;;
4808;SDS011;2418;49.930;8.606;2023-02-01T15:20:12;17.00;;;3.50;;
4808;SDS011;2418;49.930;8.606;2023-02-01T15:22:53;9.02;;;2.22;;
4808;SDS011;2418;49.930;8.606;2023-02-01T15:25:22;7.88;;;2.70;;
4808;SDS011;2418;49.930;8.606;2023-02-01T15:27:49;10.50;;;2.80;;
4808;SDS011;2418;49.930;8.606;2023-02-01T15:30:16;8.98;;;3.00;;
4808;SDS011;2418;49.930;8.606;2023-02-01T15:32:44;4.22;;;2.00;;
4808;SDS011;2418;49.930;8.606;2023-02-01T15:44:02;8.33;;;2.53;;
4808;SDS011;2418;49.930;8.606;2023-02-01T15:46:35;13.13;;;2.80;;
4808;SDS011;2418;49.930;8.606;2023-02-01T15:49:03;7.93;;;2.13;;
4808;SDS011;2418;49.930;8.606;2023-02-01T15:51:43;10.90;;;2.95;;
4808;SDS011;2418;49.930;8.606;2023-02-01T15:54:17;10.90;;;2.65;;
4808;SDS011;2418;49.930;8.606;2023-02-01T15:56:51;15.50;;;2.20;;
4808;SDS011;2418;49.930;8.606;2023-02-01T15:59:20;7.20;;;2.10;;
4808;SDS011;2418;49.930;8.606;2023-02-01T16:01:49;8.90;;;2.30;;
4808;SDS011;2418;49.930;8.606;2023-02-01T16:06:45;8.93;;;2.55;;
4808;SDS011;2418;49.930;8.606;2023-02-01T16:09:13;7.60;;;2.20;;
4808;SDS011;2418;49.930;8.606;2023-02-01T16:11:42;5.35;;;2.00;;
4808;SDS011;2418;49.930;8.606;2023-02-01T16:14:13;9.13;;;2.45;;
4808;SDS011;2418;49.930;8.606;2023-02-01T16:16:39;7.10;;;2.80;;
4808;SDS011;2418;49.930;8.606;2023-02-01T16:19:08;8.67;;;2.53;;
4808;SDS011;2418;49.930;8.606;2023-02-01T16:21:33;9.07;;;2.72;;
4808;SDS011;2418;49.930;8.606;2023-02-01T16:23:59;4.37;;;2.10;;
4808;SDS011;2418;49.930;8.606;2023-02-01T16:26:28;11.13;;;2.75;;
4808;SDS011;2418;49.930;8.606;2023-02-01T16:28:55;7.30;;;3.10;;
4808;SDS011;2418;49.930;8.606;2023-02-01T16:31:21;9.13;;;2.70;;
4808;SDS011;2418;49.930;8.606;2023-02-01T16:33:52;8.65;;;2.30;;
4808;SDS011;2418;49.930;8.606;2023-02-01T16:36:18;4.65;;;2.20;;
4808;SDS011;2418;49.930;8.606;2023-02-01T16:38:44;5.55;;;2.50;;
4808;SDS011;2418;49.930;8.606;2023-02-01T16:41:13;7.88;;;2.20;;
4808;SDS011;2418;49.930;8.606;2023-02-01T16:43:39;9.82;;;2.10;;
4808;SDS011;2418;49.930;8.606;2023-02-01T16:46:05;3.20;;;2.10;;
4808;SDS011;2418;49.930;8.606;2023-02-01T16:48:42;6.97;;;3.00;;
4808;SDS011;2418;49.930;8.606;2023-02-01T16:51:12;6.95;;;2.60;;
4808;SDS011;2418;49.930;8.606;2023-02-01T16:53:40;6.10;;;1.80;;
4808;SDS011;2418;49.930;8.606;2023-02-01T16:56:13;9.10;;;1.98;;
4808;SDS011;2418;49.930;8.606;2023-02-01T16:58:44;9.52;;;2.63;;
4808;SDS011;2418;49.930;8.606;2023-02-01T17:01:11;8.90;;;2.30;;
4808;SDS011;2418;49.930;8.606;2023-02-01T17:03:38;9.73;;;3.00;;
4808;SDS011;2418;49.930;8.606;2023-02-01T17:06:05;9.00;;;2.57;;
4808;SDS011;2418;49.930;8.606;2023-02-01T17:08:33;11.48;;;4.30;;
4808;SDS011;2418;49.930;8.606;2023-02-01T17:11:04;11.00;;;3.92;;
4808;SDS011;2418;49.930;8.606;2023-02-01T17:13:38;7.13;;;3.03;;
4808;SDS011;2418;49.930;8.606;2023-02-01T17:18:44;11.30;;;3.63;;
4808;SDS011;2418;49.930;8.606;2023-02-01T17:21:15;8.95;;;3.03;;
4808;SDS011;2418;49.930;8.606;2023-02-01T17:23:40;11.53;;;2.80;;
4808;SDS011;2418;49.930;8.606;2023-02-01T17:26:08;12.37;;;3.10;;
4808;SDS011;2418;49.930;8.606;2023-02-01T17:28:37;11.88;;;3.03;;
4808;SDS011;2418;49.930;8.606;2023-02-01T17:31:03;8.90;;;3.10;;
4808;SDS011;2418;49.930;8.606;2023-02-01T17:33:29;13.27;;;3.80;;
4808;SDS011;2418;49.930;8.606;2023-02-01T17:35:58;12.05;;;3.00;;
4808;SDS011;2418;49.930;8.606;2023-02-01T17:38:24;11.27;;;3.60;;
4808;SDS011;2418;49.930;8.606;2023-02-01T17:40:50;11.85;;;3.53;;
4808;SDS011;2418;49.930;8.606;2023-02-01T17:43:18;10.00;;;3.20;;
4808;SDS011;2418;49.930;8.606;2023-02-01T17:45:54;8.83;;;3.43;;
4808;SDS011;2418;49.930;8.606;2023-02-01T17:48:26;9.85;;;3.00;;
4808;SDS011;2418;49.930;8.606;2023-02-01T17:50:52;12.50;;;3.53;;
4808;SDS011;2418;49.930;8.606;2023-02-01T17:53:24;9.70;;;3.22;;
4808;SDS011;2418;49.930;8.606;2023-02-01T17:55:51;12.88;;;3.40;;
4808;SDS011;2418;49.930;8.606;2023-02-01T17:58:17;13.43;;;3.63;;
4808;SDS011;2418;49.930;8.606;2023-02-01T18:00:43;7.32;;;3.08;;
4808;SDS011;2418;49.930;8.606;2023-02-01T18:03:31;14.43;;;3.25;;
4808;SDS011;2418;49.930;8.606;2023-02-01T18:06:00;9.55;;;3.35;;
4808;SDS011;2418;49.930;8.606;2023-02-01T18:08:28;6.65;;;2.85;;
4808;SDS011;2418;49.930;8.606;2023-02-01T18:10:57;9.52;;;2.53;;